PABI/DJN METAR and TAF weather

Enter ICAO airport designator
Station Type Date Time Source
PABI METAR 2020/08/07 11:53 UTC NOAA

PABI 071153Z AUTO 18003KT 10SM CLR 11/00 A2943 RMK AO2 SLP965 T01110000 10172 20106 51013 TSNO


Station Type Date Time Source
PABI Decoded METAR 2020/08/07 11:53 UTC NOAA

ALLEN ARMY AIRFIELD, AK, United States (PABI) 64-00N 145-43W 391M
Aug 07, 2020 - 07:53 AM EDT / 2020.08.07 1153 UTC
Wind: from the S (180 degrees) at 3 MPH (3 KT):0
Visibility: 10 mile(s):0
Sky conditions: clear
Temperature: 52.0 F (11.1 C)
Dew Point: 32.0 F (0.0 C)
Relative Humidity: 46%
Pressure (altimeter): 29.43 in. Hg (996 hPa)
Pressure tendency: 0.04 inches (1.3 hPa) higher than three hours ago
ob: PABI 071153Z AUTO 18003KT 10SM CLR 11/00 A2943 RMK AO2 SLP965 T01110000 10172 20106 51013 TSNO
cycle: 12

Station Type Date Time Source
PABI TAF 2020/08/07 23:00 UTC NOAA

TAF
AMD PABI 062345Z 0623/0804 18020G26KT 9999 SCT050 510003 QNH2935INS
TEMPO 0623/0704 19025G35KT
BECMG 0711/0712 17009KT 9999 BKN040 QNH2939INS TX20/0700Z TN09/0714Z

Example: see airport list